Terminal Aerodrome Forecast
Issued by NWS

Home | Current Version | Previous Version | Text Only | Print | Product List | Glossary On
Versions: 1 2 3 4 5 6 7 8 9 10 11 12 13 14 15
000
FTUS43 KGRR 201721
TAFJXN
TAF
KJXN 201721Z 2018/2118 23012KT P6SM BKN250
     FM210400 19005KT 2SM BR OVC008
     FM210700 19005KT 1/4SM FG VV002
     FM211400 17004KT 1 1/2SM -DZ BR OVC003=

USA.gov is the U.S. government's official web portal to all federal, state and local government web resources and services.